Home > Products > Valid Products > TAF

000
FTUS45 KREV 252300
TAFRNO
TAF
KRNO 252323Z 2600/2624 VRB03KT P6SM FEW200
     FM262200 23008KT P6SM SCT200=



000
FTUS45 KREV 252300
TAFRNO
TAF
KRNO 252323Z 2600/2624 VRB03KT P6SM FEW200
     FM262200 23008KT P6SM SCT200=



000
FTUS45 KREV 251700
TAFRNO
TAF
KRNO 251720Z 2518/2618 VRB03KT P6SM SCT200=



000
FTUS45 KREV 251100
TAFRNO
TAF
KRNO 251131Z 2512/2612 VRB03KT P6SM SCT200=



000
FTUS45 KREV 250500
TAFRNO
TAF
KRNO 250520Z 2506/2606 VRB03KT P6SM FEW200=



000
FTUS45 KREV 250500
TAFRNO
TAF
KRNO 250520Z 2506/2606 VRB03KT P6SM FEW200=



000
FTUS45 KREV 242300
TAFRNO
TAF
KRNO 242330Z 2500/2524 07006KT P6SM SCT200
     FM250100 VRB03KT P6SM SCT200=



000
FTUS45 KREV 242300
TAFRNO
TAF
KRNO 242330Z 2500/2524 07006KT P6SM SCT200
     FM250100 VRB03KT P6SM SCT200=



000
FTUS45 KREV 241700
TAFRNO
TAF
KRNO 241720Z 2418/2518 VRB04KT P6SM BKN200
     FM242100 07006KT P6SM SCT200
     FM250100 VRB03KT P6SM SCT200=



000
FTUS45 KREV 241700
TAFRNO
TAF
KRNO 241720Z 2418/2518 VRB04KT P6SM BKN200
     FM242100 07006KT P6SM SCT200
     FM250100 VRB03KT P6SM SCT200=



000
FTUS45 KREV 241100
TAFRNO
TAF
KRNO 241129Z 2412/2512 VRB04KT P6SM BKN200
     FM242100 07006KT P6SM SCT200
     FM250100 VRB03KT P6SM SCT200=



000
FTUS45 KREV 241100
TAFRNO
TAF
KRNO 241129Z 2412/2512 VRB04KT P6SM BKN200
     FM242100 07006KT P6SM SCT200
     FM250100 VRB03KT P6SM SCT200=



000
FTUS45 KREV 240500
TAFRNO
TAF
KRNO 240520Z 2406/2506 VRB04KT P6SM SCT100 BKN180
     FM242100 07006KT P6SM SCT200
     FM250100 VRB03KT P6SM SCT200=



000
FTUS45 KREV 240500
TAFRNO
TAF
KRNO 240520Z 2406/2506 VRB04KT P6SM SCT100 BKN180
     FM242100 07006KT P6SM SCT200
     FM250100 VRB03KT P6SM SCT200=



000
FTUS45 KREV 232300
TAFRNO
TAF
KRNO 232340Z 2400/2424 VRB04KT P6SM SCT100 BKN180
     FM242100 07006KT P6SM FEW100=



000
FTUS45 KREV 232300
TAFRNO
TAF
KRNO 232340Z 2400/2424 VRB04KT P6SM SCT100 BKN180
     FM242100 07006KT P6SM FEW100=



000
FTUS45 KREV 231700
TAFRNO
TAF
KRNO 231720Z 2318/2418 VRB04KT P6SM BKN200=



000
FTUS45 KREV 231100
TAFRNO
TAF
KRNO 231139Z 2312/2412 VRB04KT P6SM BKN200=



000
FTUS45 KREV 231100
TAFRNO
TAF
KRNO 231139Z 2312/2412 VRB04KT P6SM BKN200=



000
FTUS45 KREV 230500
TAFRNO
TAF
KRNO 230534Z 2306/2406 VRB03KT P6SM SCT200
     FM232100 06005KT P6SM SCT200
     FM240200 VRB03KT P6SM BKN200=



000
FTUS45 KREV 230500
TAFRNO
TAF
KRNO 230534Z 2306/2406 VRB03KT P6SM SCT200
     FM232100 06005KT P6SM SCT200
     FM240200 VRB03KT P6SM BKN200=



    US Dept of Commerce
    National Oceanic and Atmospheric Administration
    National Weather Service
    1325 East West Highway
    Silver Spring, MD 20910
    Page Author: NWS Internet Services Team
Disclaimer
Information Quality
Credits
Glossary
Privacy Policy
Freedom of Information Act (FOIA)
About Us
Career Opportunities